Time;durP1;ratioP1;P1;durP2;ratioP2;P2;SDS_P1;SDS_P2;PMS_P1;PMS_P2;Temp;Humidity;BMP_temperature;BMP_pressure;BME280_temperature;BME280_humidity;BME280_pressure;Samples;Min_cycle;Max_cycle;Signal;HPM_P1;HPM_P2
2023/04/19 00:00:19;;;;;;;15.93;14.23;;;3.60;84.90;;;;;;4918423;29;20233;-88
2023/04/19 00:02:44;;;;;;;22.23;14.07;;;3.50;85.00;;;;;;4916668;29;20198;-88
2023/04/19 00:05:12;;;;;;;16.03;13.60;;;3.50;85.10;;;;;;4916560;29;20192;-88
2023/04/19 00:07:38;;;;;;;22.47;13.43;;;3.50;85.20;;;;;;4917068;29;20275;-88
2023/04/19 00:10:04;;;;;;;20.90;13.63;;;3.40;85.40;;;;;;4917017;29;20663;-88
2023/04/19 00:12:29;;;;;;;15.00;13.27;;;3.40;85.60;;;;;;4916865;29;20248;-88
2023/04/19 00:14:55;;;;;;;18.80;13.77;;;3.40;85.90;;;;;;4916962;29;20183;-88
2023/04/19 00:17:21;;;;;;;15.20;13.23;;;3.40;86.10;;;;;;4918001;29;20529;-88
2023/04/19 00:19:47;;;;;;;14.47;13.03;;;3.40;86.20;;;;;;4918883;29;20244;-88
2023/04/19 00:22:12;;;;;;;14.30;12.80;;;3.40;86.20;;;;;;4917031;29;20302;-89
2023/04/19 00:24:46;;;;;;;14.20;12.80;;;3.40;86.30;;;;;;5112252;27;20557;-88
2023/04/19 00:27:12;;;;;;;15.10;13.37;;;3.40;86.30;;;;;;5111292;28;20178;-88
2023/04/19 00:29:37;;;;;;;15.53;13.80;;;3.30;86.40;;;;;;5111249;28;20204;-88
2023/04/19 00:32:04;;;;;;;17.43;12.87;;;3.30;86.50;;;;;;5111252;28;20568;-88
2023/04/19 00:34:30;;;;;;;21.87;13.83;;;3.30;86.60;;;;;;5110094;28;20182;-88
2023/04/19 00:36:57;;;;;;;16.67;13.00;;;3.40;86.60;;;;;;5110020;28;20180;-87
2023/04/19 00:39:22;;;;;;;14.37;12.97;;;3.40;86.60;;;;;;5111305;28;20174;-88
2023/04/19 00:41:48;;;;;;;17.53;13.03;;;3.40;86.60;;;;;;5111280;28;20195;-88
2023/04/19 00:44:14;;;;;;;18.00;13.17;;;3.40;86.50;;;;;;5109347;28;20217;-87
2023/04/19 00:46:41;;;;;;;17.10;13.30;;;3.40;86.50;;;;;;5109582;28;20174;-88
2023/04/19 00:49:06;;;;;;;14.53;12.93;;;3.40;86.40;;;;;;5109504;28;20170;-88
2023/04/19 00:51:33;;;;;;;15.17;12.40;;;3.40;86.30;;;;;;5111037;28;20177;-88
2023/04/19 00:53:58;;;;;;;16.83;12.57;;;3.40;86.20;;;;;;5110619;28;20197;-88
2023/04/19 00:56:26;;;;;;;14.03;12.60;;;3.40;86.20;;;;;;5109377;28;20181;-88
2023/04/19 00:58:53;;;;;;;18.37;12.63;;;3.30;86.10;;;;;;5109317;28;20210;-88
2023/04/19 01:01:18;;;;;;;15.70;13.10;;;3.30;86.00;;;;;;5109301;28;20209;-88
2023/04/19 01:03:45;;;;;;;21.73;13.43;;;3.40;85.90;;;;;;5109417;28;20233;-88
2023/04/19 01:06:11;;;;;;;14.87;12.90;;;3.40;85.80;;;;;;5110414;28;20198;-87
2023/04/19 01:08:36;;;;;;;18.80;13.47;;;3.40;85.60;;;;;;5110410;28;20208;-88
2023/04/19 01:11:02;;;;;;;14.37;12.80;;;3.30;85.70;;;;;;5110299;28;20549;-88
2023/04/19 01:13:27;;;;;;;13.87;12.20;;;3.40;85.60;;;;;;5108932;28;20308;-87
2023/04/19 01:15:54;;;;;;;18.27;13.10;;;3.40;85.50;;;;;;5110286;28;20174;-88
2023/04/19 01:18:23;;;;;;;13.53;12.20;;;3.40;85.40;;;;;;5109287;28;20185;-88
2023/04/19 01:20:48;;;;;;;14.50;13.00;;;3.30;85.30;;;;;;5108979;28;20184;-87
2023/04/19 01:23:14;;;;;;;14.73;13.17;;;3.30;85.20;;;;;;5109646;28;20214;-88
2023/04/19 01:25:39;;;;;;;15.13;12.73;;;3.30;85.20;;;;;;5110095;28;20257;-87
2023/04/19 01:28:05;;;;;;;14.00;12.27;;;3.30;85.10;;;;;;5108759;28;20174;-88
2023/04/19 01:30:31;;;;;;;14.07;12.67;;;3.30;85.10;;;;;;5110201;28;20182;-88
2023/04/19 01:32:57;;;;;;;13.90;12.00;;;3.30;85.00;;;;;;5109994;28;20285;-88
2023/04/19 01:35:22;;;;;;;14.60;12.43;;;3.30;84.90;;;;;;5100478;28;20251;-88
2023/04/19 01:37:49;;;;;;;16.00;12.40;;;3.30;85.00;;;;;;5094921;28;20592;-87
2023/04/19 01:40:15;;;;;;;16.70;12.87;;;3.30;84.80;;;;;;5095340;28;20171;-88
2023/04/19 01:42:40;;;;;;;12.90;11.80;;;3.30;84.70;;;;;;5096010;28;20226;-87
2023/04/19 01:45:06;;;;;;;14.43;12.57;;;3.30;84.60;;;;;;5096397;28;20645;-88
2023/04/19 01:47:32;;;;;;;12.60;11.50;;;3.30;84.60;;;;;;5096111;28;20167;-88
2023/04/19 01:49:57;;;;;;;12.60;11.40;;;3.20;84.50;;;;;;5095997;28;20664;-87
2023/04/19 01:52:23;;;;;;;19.73;12.00;;;3.20;84.40;;;;;;5094684;28;20281;-87
2023/04/19 01:54:48;;;;;;;12.50;11.20;;;3.10;84.40;;;;;;5095829;28;20174;-88
2023/04/19 01:57:15;;;;;;;12.70;11.30;;;3.10;84.40;;;;;;5095645;28;20259;-87
2023/04/19 01:59:40;;;;;;;13.50;12.20;;;3.10;84.60;;;;;;5095789;28;20163;-88
2023/04/19 02:02:08;;;;;;;13.40;12.20;;;3.10;84.50;;;;;;5095751;28;20265;-88
2023/04/19 02:04:33;;;;;;;14.17;12.47;;;3.10;84.60;;;;;;5095644;28;20194;-88
2023/04/19 02:06:59;;;;;;;13.00;11.70;;;3.10;84.50;;;;;;5095690;28;20167;-88
2023/04/19 02:09:24;;;;;;;12.30;11.10;;;3.10;84.40;;;;;;5096053;28;20648;-87
2023/04/19 02:11:50;;;;;;;12.80;11.67;;;3.00;84.50;;;;;;5095713;28;20174;-88
2023/04/19 02:14:15;;;;;;;17.47;10.90;;;2.90;84.60;;;;;;5095548;28;20202;-87
2023/04/19 02:16:42;;;;;;;13.27;11.87;;;2.90;84.80;;;;;;5094275;28;20175;-87
2023/04/19 02:19:08;;;;;;;13.90;12.13;;;2.80;84.90;;;;;;5094195;28;20612;-88
2023/04/19 02:21:33;;;;;;;13.00;11.73;;;2.80;85.10;;;;;;5095635;28;20200;-88
2023/04/19 02:23:59;;;;;;;13.67;12.10;;;2.80;85.20;;;;;;5095112;28;20211;-87
2023/04/19 02:26:25;;;;;;;15.93;11.60;;;2.80;85.40;;;;;;5095332;28;20167;-87
2023/04/19 02:28:52;;;;;;;12.87;11.63;;;2.80;85.50;;;;;;5095272;28;20170;-88
2023/04/19 02:31:17;;;;;;;14.33;12.17;;;2.80;85.50;;;;;;5094752;28;20185;-87
2023/04/19 02:33:43;;;;;;;12.40;11.03;;;2.80;85.50;;;;;;5095186;28;20194;-88
2023/04/19 02:36:09;;;;;;;12.43;11.13;;;2.90;85.50;;;;;;5095173;28;20174;-87
2023/04/19 02:38:34;;;;;;;13.20;11.53;;;2.90;85.50;;;;;;5094126;28;20186;-88
2023/04/19 02:41:03;;;;;;;11.80;10.80;;;2.90;85.50;;;;;;5093866;28;20201;-87
2023/04/19 02:43:29;;;;;;;11.17;10.07;;;2.90;85.50;;;;;;5093520;28;20198;-87
2023/04/19 02:45:55;;;;;;;13.00;10.90;;;2.90;85.60;;;;;;5094543;28;20237;-87
2023/04/19 02:48:20;;;;;;;11.53;10.27;;;2.90;85.70;;;;;;5094832;28;20256;-88
2023/04/19 02:50:46;;;;;;;14.63;11.60;;;2.90;85.70;;;;;;5095173;28;20261;-88
2023/04/19 02:53:11;;;;;;;14.47;11.37;;;2.80;85.80;;;;;;5094627;28;20213;-88
2023/04/19 02:55:37;;;;;;;12.40;11.20;;;2.80;85.70;;;;;;5094725;28;20174;-88
2023/04/19 02:58:03;;;;;;;13.30;11.57;;;2.80;85.70;;;;;;5094992;28;20571;-87
2023/04/19 03:00:28;;;;;;;11.13;10.03;;;2.80;85.80;;;;;;5094654;28;20171;-88
2023/04/19 03:02:55;;;;;;;12.80;11.37;;;2.80;85.90;;;;;;5094470;28;20198;-87
2023/04/19 03:05:21;;;;;;;12.60;11.33;;;2.80;85.90;;;;;;5094942;28;20175;-87
2023/04/19 03:07:46;;;;;;;12.40;11.20;;;2.90;85.80;;;;;;5094461;28;20273;-87
2023/04/19 03:10:12;;;;;;;11.60;10.60;;;2.90;85.60;;;;;;5093215;28;20712;-87
2023/04/19 03:12:37;;;;;;;12.90;11.67;;;2.90;85.50;;;;;;5093058;28;20233;-88
2023/04/19 03:15:03;;;;;;;13.23;11.00;;;2.90;85.50;;;;;;5094659;28;20170;-88
2023/04/19 03:17:29;;;;;;;12.33;11.10;;;2.90;85.50;;;;;;5094284;28;20167;-88
2023/04/19 03:19:55;;;;;;;12.33;10.83;;;2.90;85.40;;;;;;5092942;28;20170;-87
2023/04/19 03:22:21;;;;;;;16.67;11.03;;;2.90;85.40;;;;;;5093948;28;20201;-87
2023/04/19 03:24:46;;;;;;;12.33;11.20;;;2.90;85.50;;;;;;5094136;28;20205;-88
2023/04/19 03:27:12;;;;;;;11.57;10.57;;;2.90;85.50;;;;;;5093117;28;20185;-87
2023/04/19 03:29:37;;;;;;;13.60;10.73;;;3.00;85.50;;;;;;5094482;28;20216;-87
2023/04/19 03:32:03;;;;;;;12.90;10.23;;;3.00;85.50;;;;;;5094061;28;20167;-87
2023/04/19 03:34:28;;;;;;;14.00;11.00;;;3.00;85.40;;;;;;5094260;28;20541;-88
2023/04/19 03:36:54;;;;;;;10.87;9.93;;;3.10;85.50;;;;;;5093223;28;20248;-88
2023/04/19 03:39:20;;;;;;;17.50;10.43;;;3.00;85.50;;;;;;5093903;28;20173;-88
2023/04/19 03:41:45;;;;;;;14.67;10.90;;;3.10;85.60;;;;;;5094085;28;20186;-88
2023/04/19 03:44:11;;;;;;;17.17;11.37;;;3.10;85.70;;;;;;5092608;28;20206;-88
2023/04/19 03:46:36;;;;;;;11.83;10.63;;;3.10;85.70;;;;;;5093832;28;20251;-87
2023/04/19 03:49:02;;;;;;;15.63;11.27;;;3.10;85.60;;;;;;5093801;28;20177;-87
2023/04/19 03:51:27;;;;;;;15.07;12.33;;;3.10;85.50;;;;;;5093826;28;20186;-88
2023/04/19 03:53:54;;;;;;;16.07;10.97;;;3.10;85.50;;;;;;5093684;28;20195;-88
2023/04/19 03:56:19;;;;;;;12.00;10.77;;;3.10;85.40;;;;;;5097969;28;20187;-88
2023/04/19 03:58:45;;;;;;;11.77;10.57;;;3.20;85.40;;;;;;5093397;28;20163;-88
2023/04/19 04:01:21;;;;;;;12.00;9.97;;;3.20;85.30;;;;;;5092433;28;20263;-87
2023/04/19 04:03:47;;;;;;;11.20;10.17;;;3.20;85.20;;;;;;5092174;28;20696;-88
2023/04/19 04:06:12;;;;;;;15.70;10.80;;;3.20;85.00;;;;;;5092578;28;20213;-88
2023/04/19 04:08:38;;;;;;;12.37;10.77;;;3.20;85.00;;;;;;5094040;28;20163;-88
2023/04/19 04:11:03;;;;;;;11.60;10.23;;;3.20;85.10;;;;;;5092171;28;20186;-88
2023/04/19 04:13:29;;;;;;;10.10;9.30;;;3.20;85.00;;;;;;5093363;28;20702;-88
2023/04/19 04:15:54;;;;;;;11.80;10.57;;;3.20;85.00;;;;;;5093422;28;20254;-88
2023/04/19 04:18:20;;;;;;;11.70;10.60;;;3.30;84.90;;;;;;5093394;28;20167;-88
2023/04/19 04:20:46;;;;;;;11.30;10.17;;;3.30;84.70;;;;;;5092286;28;20245;-88
2023/04/19 04:23:13;;;;;;;12.07;10.87;;;3.30;84.50;;;;;;5093304;28;20277;-88
2023/04/19 04:25:38;;;;;;;14.90;9.50;;;3.30;84.20;;;;;;5093369;28;20163;-88
2023/04/19 04:28:04;;;;;;;12.37;10.47;;;3.30;84.00;;;;;;5092212;28;20254;-88
2023/04/19 04:30:32;;;;;;;12.03;9.77;;;3.40;83.70;;;;;;5092775;28;20230;-88
2023/04/19 04:32:58;;;;;;;12.90;10.50;;;3.40;83.70;;;;;;5093131;28;20274;-88
2023/04/19 04:35:23;;;;;;;12.80;10.50;;;3.40;83.70;;;;;;5093150;28;20210;-88
2023/04/19 04:37:49;;;;;;;14.23;11.27;;;3.60;83.60;;;;;;5093295;28;20171;-88
2023/04/19 04:40:15;;;;;;;13.93;11.47;;;3.70;83.40;;;;;;5093409;28;20243;-88
2023/04/19 04:42:41;;;;;;;18.30;10.63;;;3.70;83.30;;;;;;5093491;28;20567;-88
2023/04/19 04:45:09;;;;;;;11.53;10.47;;;3.80;83.20;;;;;;5092210;28;20367;-88
2023/04/19 04:47:35;;;;;;;13.90;10.57;;;3.90;82.90;;;;;;5093216;28;20585;-87
2023/04/19 04:50:01;;;;;;;11.73;10.47;;;4.00;82.50;;;;;;5092144;28;20181;-87
2023/04/19 04:52:27;;;;;;;11.27;10.07;;;4.10;82.30;;;;;;5093059;28;20182;-87
2023/04/19 04:54:53;;;;;;;12.83;11.40;;;4.20;82.20;;;;;;5092981;28;20546;-87
2023/04/19 04:57:18;;;;;;;10.67;9.67;;;4.20;82.00;;;;;;5093266;28;20171;-88
2023/04/19 04:59:46;;;;;;;11.10;9.97;;;4.30;81.90;;;;;;5093082;28;20163;-88
2023/04/19 05:02:12;;;;;;;13.37;9.97;;;4.30;81.80;;;;;;5093256;28;20282;-87
2023/04/19 05:04:37;;;;;;;14.90;9.60;;;4.40;81.70;;;;;;5094082;28;20695;-88
2023/04/19 05:07:03;;;;;;;13.10;10.13;;;4.40;81.70;;;;;;5092591;28;20235;-88
2023/04/19 05:09:28;;;;;;;12.30;10.17;;;4.50;81.70;;;;;;5093677;28;20174;-87
2023/04/19 05:11:54;;;;;;;10.50;9.50;;;4.60;81.70;;;;;;5096918;28;20179;-87
2023/04/19 05:14:20;;;;;;;12.47;10.67;;;4.60;81.70;;;;;;5095838;28;20206;-88
2023/04/19 05:16:45;;;;;;;14.03;10.60;;;4.60;81.70;;;;;;5097860;28;20199;-88
2023/04/19 05:19:11;;;;;;;10.73;9.60;;;4.60;81.50;;;;;;5097222;28;20172;-88
2023/04/19 05:21:36;;;;;;;10.93;9.37;;;4.70;81.40;;;;;;5097363;28;20170;-87
2023/04/19 05:24:02;;;;;;;10.27;9.30;;;4.80;81.60;;;;;;5096998;28;20206;-87
2023/04/19 05:26:27;;;;;;;11.10;10.10;;;4.80;81.50;;;;;;5097190;28;20632;-88
2023/04/19 05:28:53;;;;;;;11.70;10.50;;;4.90;81.80;;;;;;5095768;28;20165;-87
2023/04/19 05:31:19;;;;;;;10.47;9.00;;;4.90;81.70;;;;;;5096874;28;20196;-88
2023/04/19 05:33:45;;;;;;;10.30;9.40;;;5.00;81.80;;;;;;5097601;28;20204;-88
2023/04/19 05:36:11;;;;;;;10.23;8.67;;;5.00;81.60;;;;;;5097234;28;20173;-89
2023/04/19 05:38:36;;;;;;;9.27;8.13;;;5.10;81.60;;;;;;5096418;28;20279;-88
2023/04/19 05:41:04;;;;;;;10.67;9.67;;;5.20;81.50;;;;;;5096231;28;20177;-88
2023/04/19 05:43:30;;;;;;;11.83;9.03;;;5.30;81.50;;;;;;5096349;28;20197;-88
2023/04/19 05:45:56;;;;;;;10.63;9.00;;;5.40;81.10;;;;;;5095236;28;20174;-88
2023/04/19 05:48:21;;;;;;;11.87;9.60;;;5.50;80.20;;;;;;5095233;28;20177;-88
2023/04/19 05:50:47;;;;;;;9.73;8.73;;;5.70;80.00;;;;;;5096118;28;20180;-88
2023/04/19 05:53:12;;;;;;;9.80;8.87;;;5.80;79.70;;;;;;5096478;28;20194;-88
2023/04/19 05:55:38;;;;;;;10.77;9.67;;;5.80;79.50;;;;;;5096612;28;20173;-88
2023/04/19 05:58:03;;;;;;;9.93;8.77;;;5.90;78.90;;;;;;5095940;28;20174;-88
2023/04/19 06:00:29;;;;;;;10.10;9.23;;;6.00;78.70;;;;;;5096065;28;20185;-88
2023/04/19 06:02:55;;;;;;;9.87;8.70;;;6.10;78.80;;;;;;5095869;28;20255;-88
2023/04/19 06:05:21;;;;;;;9.30;8.47;;;6.20;79.20;;;;;;5094559;28;20180;-88
2023/04/19 06:07:46;;;;;;;9.47;8.70;;;6.30;79.00;;;;;;5095822;28;20174;-88
2023/04/19 06:10:12;;;;;;;13.57;9.10;;;6.30;79.10;;;;;;5096433;28;20179;-88
2023/04/19 06:12:38;;;;;;;11.13;8.37;;;6.40;78.60;;;;;;5095601;28;20230;-89
2023/04/19 06:15:05;;;;;;;10.07;9.07;;;6.50;78.80;;;;;;5096335;28;20224;-88
2023/04/19 06:17:30;;;;;;;10.30;9.50;;;6.60;78.00;;;;;;5095314;28;20181;-88
2023/04/19 06:19:56;;;;;;;10.80;9.80;;;6.70;77.50;;;;;;5096760;28;20503;-88
2023/04/19 06:22:21;;;;;;;10.27;9.37;;;6.80;77.30;;;;;;5095724;28;20199;-87
2023/04/19 06:24:47;;;;;;;10.60;9.67;;;6.80;77.50;;;;;;5096197;28;20238;-88
2023/04/19 06:27:15;;;;;;;11.30;10.10;;;6.90;77.00;;;;;;5095408;28;20533;-88
2023/04/19 06:29:41;;;;;;;10.40;9.60;;;6.90;76.80;;;;;;5094301;28;20183;-88
2023/04/19 06:32:07;;;;;;;11.13;10.10;;;7.00;76.60;;;;;;5095723;28;20713;-88
2023/04/19 06:34:33;;;;;;;11.20;10.30;;;7.10;76.60;;;;;;5095383;28;20202;-88
2023/04/19 06:36:59;;;;;;;12.13;10.90;;;7.30;76.90;;;;;;5095906;28;20202;-88
2023/04/19 06:39:26;;;;;;;11.23;10.43;;;7.30;75.80;;;;;;5094352;28;20178;-88
2023/04/19 06:41:51;;;;;;;12.00;11.20;;;7.40;75.30;;;;;;5095980;28;20163;-88
2023/04/19 06:44:17;;;;;;;12.80;11.03;;;7.50;74.50;;;;;;5095834;28;20206;-88
2023/04/19 06:46:42;;;;;;;12.93;11.73;;;7.50;74.50;;;;;;5095644;28;20223;-88
2023/04/19 06:49:08;;;;;;;13.03;12.07;;;7.60;73.70;;;;;;5095509;28;20632;-88
2023/04/19 06:51:33;;;;;;;12.77;11.87;;;7.70;73.80;;;;;;5094703;28;20214;-87
2023/04/19 06:53:59;;;;;;;14.10;13.13;;;7.80;73.70;;;;;;5095150;28;20191;-88
2023/04/19 06:56:44;;;;;;;14.57;12.93;;;7.90;71.70;;;;;;5095116;28;20194;-87
2023/04/19 06:59:15;;;;;;;13.70;12.37;;;8.00;72.00;;;;;;5093526;28;20258;-88
2023/04/19 07:01:41;;;;;;;23.70;15.33;;;8.20;72.30;;;;;;5095343;28;20177;-88
2023/04/19 07:04:07;;;;;;;13.60;12.60;;;8.30;72.00;;;;;;5094941;28;20206;-87
2023/04/19 07:06:36;;;;;;;13.40;12.30;;;8.30;70.30;;;;;;5095439;28;20177;-88
2023/04/19 07:09:03;;;;;;;14.03;12.73;;;8.30;70.20;;;;;;5094704;28;20167;-88
2023/04/19 07:11:28;;;;;;;13.90;12.80;;;8.30;71.30;;;;;;5094916;28;20170;-88
2023/04/19 07:13:54;;;;;;;13.57;12.57;;;8.50;70.80;;;;;;5093302;28;20199;-87
2023/04/19 07:16:20;;;;;;;13.80;12.87;;;8.70;71.10;;;;;;5093455;28;20178;-88
2023/04/19 07:18:45;;;;;;;14.27;13.27;;;8.70;70.10;;;;;;5095462;28;20163;-89
2023/04/19 07:21:11;;;;;;;13.50;12.60;;;8.80;68.80;;;;;;5093216;28;20171;-88
2023/04/19 07:23:37;;;;;;;14.10;13.10;;;8.90;69.60;;;;;;5093143;28;20580;-89
2023/04/19 07:26:02;;;;;;;16.37;15.17;;;9.00;68.50;;;;;;5094394;28;20548;-88
2023/04/19 07:28:28;;;;;;;16.73;15.67;;;9.30;70.10;;;;;;5093122;28;20183;-88
2023/04/19 07:30:54;;;;;;;16.87;15.50;;;9.30;68.30;;;;;;5094716;28;20174;-88
2023/04/19 07:33:21;;;;;;;17.03;15.83;;;9.40;68.00;;;;;;5092470;28;20202;-88
2023/04/19 07:35:46;;;;;;;17.23;16.13;;;9.50;67.90;;;;;;5094250;28;20219;-88
2023/04/19 07:38:12;;;;;;;17.53;16.27;;;9.50;64.40;;;;;;5094233;28;20253;-89
2023/04/19 07:40:37;;;;;;;19.07;17.67;;;9.70;67.20;;;;;;5094286;28;20724;-89
2023/04/19 07:43:03;;;;;;;18.83;17.23;;;9.70;64.80;;;;;;5094656;28;20236;-88
2023/04/19 07:45:29;;;;;;;17.57;16.47;;;9.80;62.50;;;;;;5093235;28;20223;-88
2023/04/19 07:47:55;;;;;;;16.90;15.73;;;9.90;63.00;;;;;;5094257;28;20171;-88
2023/04/19 07:50:20;;;;;;;16.90;15.80;;;10.10;64.50;;;;;;5093588;28;20186;-88
2023/04/19 07:52:46;;;;;;;16.67;15.67;;;10.30;60.50;;;;;;5094482;28;20558;-88
2023/04/19 07:55:12;;;;;;;17.63;16.53;;;10.50;60.70;;;;;;5094805;28;20181;-88
2023/04/19 07:57:37;;;;;;;17.87;16.50;;;10.60;58.50;;;;;;5093562;28;20217;-87
2023/04/19 08:00:03;;;;;;;17.67;16.43;;;10.60;58.60;;;;;;5094016;28;20640;-89
2023/04/19 08:02:29;;;;;;;16.97;15.67;;;10.80;59.70;;;;;;5097313;28;20210;-90
2023/04/19 08:04:56;;;;;;;16.37;15.47;;;10.80;57.40;;;;;;5095753;28;20672;-88
2023/04/19 08:07:22;;;;;;;15.40;14.50;;;11.00;57.50;;;;;;5093977;28;20645;-88
2023/04/19 08:09:48;;;;;;;16.63;15.63;;;10.90;54.90;;;;;;5093204;28;20270;-88
2023/04/19 08:12:14;;;;;;;16.70;15.60;;;10.90;54.20;;;;;;5092227;28;20202;-88
2023/04/19 08:14:41;;;;;;;15.97;15.07;;;11.00;53.10;;;;;;5092139;28;20186;-87
2023/04/19 08:17:06;;;;;;;17.73;16.27;;;11.00;53.60;;;;;;5092258;28;20531;-86
2023/04/19 08:19:32;;;;;;;16.37;15.40;;;11.10;54.30;;;;;;5092096;28;20243;-85
2023/04/19 08:21:57;;;;;;;16.83;15.73;;;11.20;55.60;;;;;;5092928;28;20217;-85
2023/04/19 08:24:23;;;;;;;17.03;16.03;;;11.20;53.00;;;;;;5092021;28;20702;-86
2023/04/19 08:26:52;;;;;;;16.83;15.73;;;11.30;54.60;;;;;;5092373;28;20178;-88
2023/04/19 08:29:19;;;;;;;16.80;15.70;;;11.40;54.30;;;;;;5092080;28;20179;-87
2023/04/19 08:31:45;;;;;;;16.50;15.50;;;11.50;52.20;;;;;;5092388;28;20274;-87
2023/04/19 08:34:11;;;;;;;14.60;13.80;;;11.50;51.50;;;;;;5091848;28;20233;-87
2023/04/19 08:36:36;;;;;;;15.63;14.73;;;11.60;52.60;;;;;;5092334;28;20178;-88
2023/04/19 08:39:02;;;;;;;16.13;15.23;;;11.60;50.90;;;;;;5091908;28;20556;-87
2023/04/19 08:41:29;;;;;;;16.87;15.87;;;11.60;50.80;;;;;;5093215;28;20228;-88
2023/04/19 08:43:56;;;;;;;17.10;16.10;;;11.80;51.80;;;;;;5093033;28;20245;-88
2023/04/19 08:46:23;;;;;;;17.43;16.43;;;11.70;49.30;;;;;;5096640;28;20315;-88
2023/04/19 08:48:49;;;;;;;17.93;16.60;;;11.70;50.80;;;;;;5097248;28;20167;-89
2023/04/19 08:51:16;;;;;;;17.80;16.70;;;11.70;49.60;;;;;;5096153;28;20174;-87
2023/04/19 08:53:43;;;;;;;18.20;17.10;;;11.80;50.70;;;;;;5095985;28;20222;-87
2023/04/19 08:56:09;;;;;;;17.27;16.27;;;11.80;49.80;;;;;;5097390;28;20231;-88
2023/04/19 08:58:34;;;;;;;18.00;16.80;;;11.90;50.20;;;;;;5097131;28;20216;-88
2023/04/19 09:01:03;;;;;;;17.87;16.77;;;12.20;51.00;;;;;;5097333;28;20170;-89
2023/04/19 09:03:29;;;;;;;17.20;16.10;;;12.20;49.50;;;;;;5095567;28;20234;-88
2023/04/19 09:05:55;;;;;;;17.37;16.37;;;12.30;47.50;;;;;;5097052;28;20186;-88
2023/04/19 09:08:21;;;;;;;18.13;17.03;;;12.20;48.70;;;;;;5096031;28;20214;-88
2023/04/19 09:10:59;;;;;;;17.23;16.23;;;12.10;47.80;;;;;;5096796;28;20656;-87
2023/04/19 09:13:25;;;;;;;17.77;16.77;;;11.90;46.90;;;;;;5096212;28;20199;-88
2023/04/19 09:15:50;;;;;;;17.37;16.17;;;11.90;48.50;;;;;;5095660;28;20262;-87
2023/04/19 09:18:18;;;;;;;18.40;17.30;;;11.60;50.40;;;;;;5096640;28;20198;-87
2023/04/19 09:20:44;;;;;;;18.10;17.10;;;11.60;49.40;;;;;;5095525;28;20179;-87
2023/04/19 09:23:17;;;;;;;17.67;16.57;;;11.60;47.80;;;;;;5095383;28;20301;-87
2023/04/19 09:25:59;;;;;;;18.50;17.40;;;12.00;49.90;;;;;;5095607;28;20163;-87
2023/04/19 09:28:28;;;;;;;18.20;16.80;;;11.90;49.40;;;;;;5096896;28;20686;-87
2023/04/19 09:30:55;;;;;;;17.80;16.60;;;12.10;49.30;;;;;;5095601;28;20235;-88
2023/04/19 09:33:32;;;;;;;17.03;16.03;;;12.20;48.10;;;;;;5096342;28;20252;-87
2023/04/19 09:35:58;;;;;;;20.57;17.27;;;12.50;49.70;;;;;;5095191;28;20189;-87
2023/04/19 09:38:24;;;;;;;18.87;17.77;;;12.80;46.60;;;;;;5095089;28;20182;-87
2023/04/19 09:40:49;;;;;;;18.53;17.40;;;12.70;42.70;;;;;;5095185;28;20308;-87
2023/04/19 09:43:24;;;;;;;18.10;17.10;;;12.90;44.20;;;;;;5096214;28;20207;-88
2023/04/19 09:45:50;;;;;;;19.10;17.90;;;12.70;43.90;;;;;;5094904;28;20178;-88
2023/04/19 09:48:16;;;;;;;18.77;17.67;;;12.50;44.60;;;;;;5095122;28;20791;-88
2023/04/19 09:50:56;;;;;;;19.30;18.00;;;12.50;43.30;;;;;;5095939;28;20202;-88
2023/04/19 09:53:23;;;;;;;19.17;17.97;;;12.70;44.40;;;;;;5096258;28;20549;-88
2023/04/19 09:55:49;;;;;;;18.60;17.23;;;12.70;44.50;;;;;;5095509;28;20182;-88
2023/04/19 09:58:18;;;;;;;19.30;17.43;;;12.70;42.30;;;;;;5094877;28;20182;-88
2023/04/19 10:00:46;;;;;;;17.90;16.80;;;12.70;45.90;;;;;;5094920;28;20655;-88
2023/04/19 10:03:16;;;;;;;17.70;16.70;;;12.70;43.50;;;;;;5094880;28;20214;-87
2023/04/19 10:05:43;;;;;;;17.73;16.73;;;12.90;42.90;;;;;;5095854;28;20240;-89
2023/04/19 10:08:10;;;;;;;17.83;16.50;;;13.00;44.90;;;;;;5106314;28;20182;-88
2023/04/19 10:10:38;;;;;;;17.43;16.13;;;13.20;44.80;;;;;;5098550;28;20228;-87
2023/04/19 10:13:07;;;;;;;16.47;15.47;;;13.20;45.50;;;;;;5095991;28;20668;-89
2023/04/19 10:15:35;;;;;;;16.37;15.30;;;12.80;42.80;;;;;;5095653;28;20187;-89
2023/04/19 10:18:01;;;;;;;16.60;15.50;;;13.10;43.90;;;;;;5100302;28;20655;-88
2023/04/19 10:20:50;;;;;;;17.10;16.00;;;13.50;47.00;;;;;;5099926;28;20178;-88
2023/04/19 10:23:16;;;;;;;15.97;14.97;;;13.40;41.70;;;;;;5097203;28;20206;-88
2023/04/19 10:25:46;;;;;;;15.90;15.00;;;13.50;41.80;;;;;;5095288;28;20520;-88
2023/04/19 10:28:12;;;;;;;17.07;16.07;;;13.70;40.40;;;;;;5095698;28;20159;-88
2023/04/19 10:30:56;;;;;;;16.10;15.20;;;13.60;37.90;;;;;;5094941;28;20187;-88
2023/04/19 10:33:26;;;;;;;17.03;15.83;;;13.50;36.80;;;;;;5094238;28;20190;-88
2023/04/19 10:35:56;;;;;;;16.37;14.90;;;13.40;38.80;;;;;;5095164;28;20179;-87
2023/04/19 10:38:38;;;;;;;17.60;16.40;;;13.50;36.20;;;;;;5093991;28;20175;-87
2023/04/19 10:41:10;;;;;;;15.90;14.90;;;13.30;38.40;;;;;;5094451;28;20220;-88
2023/04/19 10:43:36;;;;;;;16.97;15.97;;;13.30;36.10;;;;;;5093980;28;20580;-88
2023/04/19 10:46:05;;;;;;;16.70;15.70;;;13.40;36.90;;;;;;5094902;28;20597;-88
2023/04/19 10:48:36;;;;;;;16.50;15.40;;;13.40;38.10;;;;;;5094309;28;20539;-88
2023/04/19 10:51:18;;;;;;;23.23;21.80;;;13.50;36.80;;;;;;5095267;28;20682;-88
2023/04/19 10:53:54;;;;;;;23.27;21.87;;;13.60;39.10;;;;;;5094512;28;20588;-87
2023/04/19 10:56:32;;;;;;;23.10;21.60;;;13.60;36.90;;;;;;5095300;28;20670;-87
2023/04/19 10:59:01;;;;;;;21.17;19.87;;;13.70;35.60;;;;;;5098665;28;20262;-89
2023/04/19 11:01:47;;;;;;;21.20;19.80;;;13.50;36.60;;;;;;5094315;28;20182;-87
2023/04/19 11:04:18;;;;;;;17.17;15.97;;;13.50;37.00;;;;;;5094988;28;20209;-88
2023/04/19 11:06:50;;;;;;;17.03;15.93;;;13.50;36.50;;;;;;5093495;28;20213;-87
2023/04/19 11:09:41;;;;;;;21.83;20.43;;;13.80;38.00;;;;;;5094220;28;20667;-87
2023/04/19 11:12:14;;;;;;;22.20;20.33;;;13.70;38.80;;;;;;5094383;28;20163;-87
2023/04/19 11:14:48;;;;;;;23.50;21.73;;;13.70;39.00;;;;;;5094840;28;20228;-87
2023/04/19 11:17:17;;;;;;;17.53;16.43;;;13.70;38.40;;;;;;5093358;28;20178;-87
2023/04/19 11:19:45;;;;;;;17.17;16.07;;;13.80;36.80;;;;;;5094275;28;20636;-87
2023/04/19 11:22:10;;;;;;;17.30;16.20;;;13.70;39.50;;;;;;5093189;28;20175;-87
2023/04/19 11:24:36;;;;;;;17.60;16.40;;;13.70;39.40;;;;;;5093117;28;20612;-87
2023/04/19 11:27:07;;;;;;;16.47;15.47;;;13.50;38.20;;;;;;5093199;28;20182;-87
2023/04/19 11:29:33;;;;;;;17.20;16.10;;;13.80;39.60;;;;;;5093055;28;20171;-87
2023/04/19 11:31:59;;;;;;;16.10;15.10;;;13.70;39.00;;;;;;5093180;28;20171;-87
2023/04/19 11:34:25;;;;;;;16.87;15.77;;;13.80;41.30;;;;;;5093196;28;20226;-88
2023/04/19 11:36:51;;;;;;;16.90;15.80;;;13.30;37.50;;;;;;5093241;28;20567;-87
2023/04/19 11:39:17;;;;;;;17.40;16.20;;;12.70;37.80;;;;;;5093385;28;20178;-88
2023/04/19 11:41:43;;;;;;;18.20;16.30;;;13.20;41.50;;;;;;5097118;28;20159;-88
2023/04/19 11:44:21;;;;;;;16.53;15.53;;;13.50;38.50;;;;;;5096429;28;20280;-89
2023/04/19 11:47:03;;;;;;;17.43;16.33;;;13.60;38.50;;;;;;5095804;28;20162;-88
2023/04/19 11:49:31;;;;;;;16.80;15.80;;;13.50;38.90;;;;;;5097018;28;20167;-89
2023/04/19 11:51:58;;;;;;;17.43;16.33;;;13.80;38.70;;;;;;5097156;28;20225;-88
2023/04/19 11:54:25;;;;;;;17.80;16.37;;;13.80;37.60;;;;;;5096188;28;20186;-88
2023/04/19 11:57:07;;;;;;;17.30;16.10;;;13.80;36.70;;;;;;5097922;28;20198;-88
2023/04/19 11:59:34;;;;;;;17.50;16.40;;;13.90;36.60;;;;;;5099094;28;20232;-88
2023/04/19 12:02:10;;;;;;;16.60;15.57;;;14.20;34.30;;;;;;5098311;28;20561;-89
2023/04/19 12:04:36;;;;;;;18.90;17.20;;;14.00;36.90;;;;;;5095267;28;20198;-88
2023/04/19 12:07:02;;;;;;;17.20;16.10;;;13.70;36.40;;;;;;5099613;28;20241;-88
2023/04/19 12:09:28;;;;;;;18.83;17.40;;;13.80;36.00;;;;;;5093844;28;20216;-88
2023/04/19 12:11:54;;;;;;;17.60;16.43;;;13.80;35.90;;;;;;5093292;28;20170;-88
2023/04/19 12:14:21;;;;;;;16.83;15.83;;;13.80;36.20;;;;;;5092486;28;20580;-88
2023/04/19 12:17:22;;;;;;;24.23;22.67;;;13.70;32.80;;;;;;5093936;28;20174;-87
2023/04/19 12:19:48;;;;;;;24.10;22.37;;;13.80;34.00;;;;;;5012199;28;20189;-88
2023/04/19 12:22:23;;;;;;;23.80;22.37;;;13.80;34.00;;;;;;5076541;28;20254;-88
2023/04/19 12:24:55;;;;;;;23.80;22.30;;;13.80;36.70;;;;;;5095209;28;20190;-87
2023/04/19 12:27:20;;;;;;;18.67;17.43;;;13.80;36.20;;;;;;5095965;28;20213;-89
2023/04/19 12:29:46;;;;;;;18.43;17.03;;;13.80;36.00;;;;;;5094827;28;20216;-89
2023/04/19 12:32:13;;;;;;;17.37;16.27;;;13.30;37.20;;;;;;5095147;28;20170;-88
2023/04/19 12:34:39;;;;;;;23.60;22.00;;;13.50;34.10;;;;;;5093898;28;20170;-89